Time;durP1;ratioP1;P1;durP2;ratioP2;P2;SDS_P1;SDS_P2;PMS_P1;PMS_P2;Temp;Humidity;BMP_temperature;BMP_pressure;BME280_temperature;BME280_humidity;BME280_pressure;Samples;Min_cycle;Max_cycle;Signal;HPM_P1;HPM_P2
2022/10/20 00:00:24;;;;;;;12.40;6.78;;;9.50;99.90;;;;;;5055617;28;20037;-81
2022/10/20 00:02:50;;;;;;;12.57;6.78;;;9.50;99.90;;;;;;5054743;28;20029;-82
2022/10/20 00:05:15;;;;;;;7.90;7.10;;;9.50;99.90;;;;;;5055525;28;20021;-82
2022/10/20 00:07:41;;;;;;;10.55;6.57;;;9.50;99.90;;;;;;5055577;28;20417;-81
2022/10/20 00:10:07;;;;;;;9.73;7.93;;;9.50;99.90;;;;;;5055329;28;20035;-81
2022/10/20 00:12:33;;;;;;;8.00;7.28;;;9.50;99.90;;;;;;5055729;28;20025;-81
2022/10/20 00:14:58;;;;;;;10.23;6.78;;;9.50;99.90;;;;;;5056030;28;20025;-81
2022/10/20 00:17:26;;;;;;;10.52;7.30;;;9.50;99.90;;;;;;5055326;28;20064;-82
2022/10/20 00:19:52;;;;;;;11.23;7.43;;;9.60;99.90;;;;;;5054039;28;20128;-81
2022/10/20 00:22:18;;;;;;;14.32;7.70;;;9.50;99.90;;;;;;5049834;28;20140;-81
2022/10/20 00:24:43;;;;;;;13.05;8.00;;;9.50;99.90;;;;;;5046873;28;20056;-80
2022/10/20 00:27:09;;;;;;;15.02;7.32;;;9.50;99.90;;;;;;5056467;28;20025;-80
2022/10/20 00:29:35;;;;;;;11.50;8.27;;;9.50;99.90;;;;;;5054551;28;20067;-81
2022/10/20 00:32:00;;;;;;;11.75;7.80;;;9.50;99.90;;;;;;5055081;28;20071;-81
2022/10/20 00:34:26;;;;;;;8.52;7.70;;;9.50;99.90;;;;;;5054955;28;20021;-81
2022/10/20 00:36:51;;;;;;;12.75;8.40;;;9.50;99.90;;;;;;5055189;28;20087;-81
2022/10/20 00:39:17;;;;;;;9.68;8.65;;;9.50;99.90;;;;;;5055933;28;20544;-81
2022/10/20 00:41:43;;;;;;;9.70;8.05;;;9.50;99.90;;;;;;5055109;28;20044;-80
2022/10/20 00:44:47;;;;;;;13.80;8.80;;;9.50;99.90;;;;;;5055245;28;20027;-81
2022/10/20 00:47:20;;;;;;;11.50;8.02;;;9.50;99.90;;;;;;5056062;28;20017;-79
2022/10/20 00:49:48;;;;;;;10.38;8.38;;;9.50;99.90;;;;;;5055061;28;20074;-81
2022/10/20 00:52:18;;;;;;;10.07;8.02;;;9.40;99.90;;;;;;5055171;28;20025;-81
2022/10/20 00:54:43;;;;;;;11.23;8.20;;;9.40;99.90;;;;;;5054752;28;20116;-81
2022/10/20 00:57:09;;;;;;;14.98;8.85;;;9.40;99.90;;;;;;5054867;28;20413;-81
2022/10/20 00:59:38;;;;;;;17.70;9.00;;;9.40;99.90;;;;;;5054802;28;20060;-80
2022/10/20 01:02:05;;;;;;;11.25;8.95;;;9.50;99.90;;;;;;5054824;28;20033;-81
2022/10/20 01:04:32;;;;;;;11.50;8.32;;;9.40;99.90;;;;;;5054235;28;20088;-81
2022/10/20 01:06:58;;;;;;;11.77;8.82;;;9.40;99.90;;;;;;5054839;28;20111;-80
2022/10/20 01:09:23;;;;;;;12.10;8.95;;;9.40;99.90;;;;;;5053165;28;20071;-80
2022/10/20 01:12:07;;;;;;;9.88;8.75;;;9.40;99.90;;;;;;5053026;28;20418;-81
2022/10/20 01:14:40;;;;;;;13.93;8.93;;;9.40;99.90;;;;;;5040746;28;20037;-80
2022/10/20 01:17:30;;;;;;;12.13;8.93;;;9.40;99.90;;;;;;5054501;28;20029;-80
2022/10/20 01:20:19;;;;;;;11.13;8.18;;;9.40;99.90;;;;;;5054117;28;20068;-80
2022/10/20 01:23:03;;;;;;;10.02;8.00;;;9.40;99.90;;;;;;5054653;28;20063;-80
2022/10/20 01:25:53;;;;;;;14.68;8.50;;;9.30;99.90;;;;;;5055689;28;20021;-79
2022/10/20 01:28:33;;;;;;;10.60;8.82;;;9.30;99.90;;;;;;5054954;28;20027;-81
2022/10/20 01:31:02;;;;;;;9.80;8.32;;;9.30;99.90;;;;;;5056174;28;20167;-81
2022/10/20 01:33:46;;;;;;;11.90;8.35;;;9.30;99.90;;;;;;5056279;28;20049;-81
2022/10/20 01:36:27;;;;;;;12.88;8.85;;;9.30;99.90;;;;;;5071886;28;20055;-79
2022/10/20 01:39:00;;;;;;;12.35;8.93;;;9.30;99.90;;;;;;5074874;28;20451;-80
2022/10/20 01:41:34;;;;;;;13.13;8.95;;;9.30;99.90;;;;;;5073422;28;20016;-80
2022/10/20 01:44:07;;;;;;;14.93;9.63;;;9.20;99.90;;;;;;5075197;28;20029;-80
2022/10/20 01:46:35;;;;;;;11.15;9.23;;;9.30;99.90;;;;;;5074992;28;20009;-80
2022/10/20 01:49:03;;;;;;;11.85;8.77;;;9.20;99.90;;;;;;5075059;28;20100;-80
2022/10/20 01:51:30;;;;;;;12.60;8.95;;;9.20;99.90;;;;;;5057656;28;20035;-81
2022/10/20 01:53:55;;;;;;;13.55;9.38;;;9.20;99.90;;;;;;5058219;28;20029;-80
2022/10/20 01:57:02;;;;;;;14.35;9.98;;;9.20;99.90;;;;;;5055866;28;20377;-80
2022/10/20 02:00:04;;;;;;;15.27;9.73;;;9.20;99.90;;;;;;5046188;28;20036;-81
2022/10/20 02:02:41;;;;;;;12.45;9.00;;;9.20;99.90;;;;;;5023269;28;20037;-80
2022/10/20 02:05:25;;;;;;;13.00;9.52;;;9.20;99.90;;;;;;5057433;28;20467;-80
2022/10/20 02:08:20;;;;;;;12.32;9.98;;;9.30;99.90;;;;;;5054568;28;20067;-82
2022/10/20 02:10:51;;;;;;;13.85;10.10;;;9.20;99.90;;;;;;5053834;28;20144;-81
2022/10/20 02:13:19;;;;;;;17.15;9.63;;;9.20;99.90;;;;;;5053620;28;20021;-80
2022/10/20 02:15:49;;;;;;;20.20;10.40;;;9.20;99.90;;;;;;5052303;28;20024;-80
2022/10/20 02:18:20;;;;;;;19.48;9.73;;;9.20;99.90;;;;;;5052608;28;20037;-81
2022/10/20 02:20:47;;;;;;;;;;;9.30;99.90;;;;;;5052843;28;20479;-80
2022/10/20 02:23:13;;;;;;;16.77;10.07;;;9.30;99.90;;;;;;5052663;28;19909;-80
2022/10/20 02:25:41;;;;;;;15.77;10.80;;;9.20;99.90;;;;;;5052748;28;20027;-81
2022/10/20 02:28:10;;;;;;;14.90;10.40;;;9.20;99.90;;;;;;5039152;28;20037;-82
2022/10/20 02:30:38;;;;;;;23.10;11.63;;;9.20;99.90;;;;;;5052548;28;20025;-80
2022/10/20 02:33:05;;;;;;;18.17;11.68;;;9.20;99.90;;;;;;5053101;28;20083;-81
2022/10/20 02:35:31;;;;;;;15.40;11.07;;;9.20;99.90;;;;;;5053394;28;20472;-80
2022/10/20 02:37:57;;;;;;;17.17;11.55;;;9.20;99.90;;;;;;5053864;28;20025;-81
2022/10/20 02:40:23;;;;;;;15.35;10.18;;;9.20;99.90;;;;;;5053215;28;20215;-81
2022/10/20 02:42:48;;;;;;;15.27;10.65;;;9.20;99.90;;;;;;5052372;28;20025;-81
2022/10/20 02:45:14;;;;;;;16.52;11.27;;;9.20;99.90;;;;;;5052679;28;20036;-80
2022/10/20 02:47:40;;;;;;;13.50;11.38;;;9.20;99.90;;;;;;5052568;28;20033;-80
2022/10/20 02:50:08;;;;;;;16.42;11.38;;;9.20;99.90;;;;;;5051549;28;20025;-81
2022/10/20 02:52:35;;;;;;;21.83;11.95;;;9.20;99.90;;;;;;5052562;28;20025;-81
2022/10/20 02:55:01;;;;;;;18.23;11.43;;;9.20;99.90;;;;;;5052908;28;20025;-81
2022/10/20 02:57:27;;;;;;;19.05;12.63;;;9.30;99.90;;;;;;5052553;28;20031;-81
2022/10/20 02:59:52;;;;;;;19.52;12.77;;;9.20;99.90;;;;;;5052569;28;20025;-81
2022/10/20 03:02:18;;;;;;;17.20;11.95;;;9.30;99.90;;;;;;5052438;28;20029;-81
2022/10/20 03:04:43;;;;;;;16.20;11.65;;;9.20;99.90;;;;;;5052046;28;20037;-80
2022/10/20 03:07:09;;;;;;;17.83;12.70;;;9.20;99.90;;;;;;5055449;28;20032;-81
2022/10/20 03:09:35;;;;;;;16.75;12.77;;;9.20;99.90;;;;;;5052656;28;20017;-81
2022/10/20 03:12:01;;;;;;;18.17;12.90;;;9.20;99.90;;;;;;5052697;28;20086;-80
2022/10/20 03:14:27;;;;;;;20.55;13.00;;;9.20;99.90;;;;;;5058463;28;20028;-80
2022/10/20 03:16:52;;;;;;;19.02;13.50;;;9.30;99.90;;;;;;5057291;28;20025;-80
2022/10/20 03:19:18;;;;;;;19.90;13.25;;;9.30;99.90;;;;;;5056059;28;20049;-78
2022/10/20 03:21:43;;;;;;;20.77;13.32;;;9.30;99.90;;;;;;5055860;28;20037;-80
2022/10/20 03:24:09;;;;;;;25.00;13.50;;;9.30;99.90;;;;;;5045263;28;20053;-81
2022/10/20 03:26:35;;;;;;;18.77;14.05;;;9.30;99.90;;;;;;5053053;28;20033;-81
2022/10/20 03:29:00;;;;;;;20.83;13.93;;;9.30;99.90;;;;;;5057358;28;20029;-81
2022/10/20 03:31:26;;;;;;;26.20;14.88;;;9.30;99.90;;;;;;5057848;28;20481;-81
2022/10/20 03:33:51;;;;;;;22.02;14.75;;;9.30;99.90;;;;;;5057376;28;20025;-81
2022/10/20 03:36:17;;;;;;;23.70;14.57;;;9.30;99.90;;;;;;5057366;28;20036;-81
2022/10/20 03:38:42;;;;;;;20.52;13.90;;;9.30;99.90;;;;;;5055954;28;20544;-81
2022/10/20 03:41:09;;;;;;;20.40;14.90;;;9.30;99.90;;;;;;5055779;28;20041;-82
2022/10/20 03:43:34;;;;;;;22.77;16.02;;;9.40;99.90;;;;;;5056814;28;20706;-82
2022/10/20 03:46:05;;;;;;;23.77;15.25;;;9.30;99.90;;;;;;5056358;28;20033;-82
2022/10/20 03:48:35;;;;;;;21.38;15.70;;;9.40;99.90;;;;;;5055861;28;20539;-82
2022/10/20 03:51:01;;;;;;;20.50;14.40;;;9.50;99.90;;;;;;5056888;28;20029;-83
2022/10/20 03:53:27;;;;;;;23.08;15.50;;;9.50;99.90;;;;;;5055729;28;20074;-82
2022/10/20 03:55:56;;;;;;;27.13;16.00;;;9.50;99.90;;;;;;5042152;28;20131;-82
2022/10/20 03:58:21;;;;;;;22.60;15.65;;;9.50;99.90;;;;;;5055916;28;20025;-83
2022/10/20 04:00:47;;;;;;;21.95;15.35;;;9.50;99.90;;;;;;5052503;28;20507;-82
2022/10/20 04:03:13;;;;;;;22.40;15.07;;;9.50;99.90;;;;;;5038249;28;20036;-82
2022/10/20 04:05:39;;;;;;;19.33;15.13;;;9.60;99.90;;;;;;5040530;28;20029;-82
2022/10/20 04:08:05;;;;;;;33.42;16.33;;;9.60;99.90;;;;;;5048941;28;20025;-82
2022/10/20 04:10:30;;;;;;;25.42;15.75;;;9.60;99.90;;;;;;5050342;28;20362;-83
2022/10/20 04:13:00;;;;;;;22.38;15.38;;;9.70;99.90;;;;;;5040403;28;20036;-82
2022/10/20 04:15:26;;;;;;;28.30;16.17;;;9.70;99.90;;;;;;5061094;28;20048;-82
2022/10/20 04:17:51;;;;;;;21.25;15.50;;;9.70;99.90;;;;;;5057205;28;20056;-83
2022/10/20 04:20:17;;;;;;;20.65;16.23;;;9.70;99.90;;;;;;5055584;28;20017;-82
2022/10/20 04:22:43;;;;;;;25.10;16.40;;;9.70;99.90;;;;;;5055627;28;20052;-82
2022/10/20 04:25:10;;;;;;;21.23;15.38;;;9.80;99.90;;;;;;5057795;28;20021;-81
2022/10/20 04:27:37;;;;;;;27.70;16.83;;;9.80;99.90;;;;;;5058089;28;20036;-82
2022/10/20 04:30:03;;;;;;;37.70;16.60;;;9.90;99.90;;;;;;5058676;28;20036;-82
2022/10/20 04:32:29;;;;;;;24.25;15.90;;;9.90;99.90;;;;;;5054768;28;20021;-82
2022/10/20 04:34:54;;;;;;;23.58;16.00;;;10.40;99.90;;;;;;5055649;28;20033;-82
2022/10/20 04:37:20;;;;;;;30.40;16.42;;;9.90;99.90;;;;;;5055105;28;20393;-81
2022/10/20 04:39:46;;;;;;;23.17;16.02;;;9.90;99.90;;;;;;5054710;28;20025;-83
2022/10/20 04:42:11;;;;;;;25.60;15.95;;;10.00;99.90;;;;;;5054622;28;20032;-82
2022/10/20 04:44:37;;;;;;;28.63;16.35;;;10.00;99.90;;;;;;5055499;28;20443;-82
2022/10/20 04:47:02;;;;;;;25.90;16.52;;;10.00;99.90;;;;;;5054441;28;20036;-82
2022/10/20 04:49:28;;;;;;;22.23;15.93;;;10.00;99.90;;;;;;5053447;28;20024;-81
2022/10/20 04:51:53;;;;;;;27.45;16.00;;;10.00;99.90;;;;;;5053030;28;20029;-81
2022/10/20 04:54:19;;;;;;;23.05;15.48;;;10.00;99.90;;;;;;5055244;28;20051;-81
2022/10/20 04:56:44;;;;;;;19.98;15.50;;;10.00;99.90;;;;;;5053091;28;20021;-81
2022/10/20 04:59:10;;;;;;;23.08;15.30;;;10.00;99.90;;;;;;5053871;28;20028;-81
2022/10/20 05:01:36;;;;;;;23.70;15.65;;;10.00;99.90;;;;;;5052745;28;20036;-81
2022/10/20 05:04:01;;;;;;;20.08;15.75;;;10.00;99.90;;;;;;5052596;28;20460;-81
2022/10/20 05:06:32;;;;;;;24.83;14.43;;;10.00;99.90;;;;;;5052787;28;20538;-81
2022/10/20 05:08:58;;;;;;;;;;;10.00;99.90;;;;;;5052262;28;20025;-82
2022/10/20 05:11:26;;;;;;;23.13;16.02;;;10.00;99.90;;;;;;5051043;28;19935;-83
2022/10/20 05:13:52;;;;;;;24.63;16.60;;;9.90;99.90;;;;;;5053506;28;20035;-83
2022/10/20 05:16:18;;;;;;;25.52;16.00;;;9.90;99.90;;;;;;5053506;28;20033;-82
2022/10/20 05:18:44;;;;;;;20.80;14.93;;;9.90;99.90;;;;;;5050211;28;20076;-83
2022/10/20 05:21:15;;;;;;;22.98;14.48;;;10.00;99.90;;;;;;5054085;28;20039;-82
2022/10/20 05:23:42;;;;;;;23.42;15.90;;;10.00;99.90;;;;;;5054767;28;20099;-81
2022/10/20 05:26:11;;;;;;;26.48;17.00;;;10.00;99.90;;;;;;5054458;28;20028;-82
2022/10/20 05:28:39;;;;;;;21.88;15.70;;;10.10;99.90;;;;;;5052577;28;20029;-80
2022/10/20 05:31:07;;;;;;;23.40;15.43;;;10.00;99.90;;;;;;5069954;28;20025;-81
2022/10/20 05:33:33;;;;;;;25.63;16.20;;;10.10;99.90;;;;;;5075158;28;20089;-81
2022/10/20 05:35:59;;;;;;;22.67;14.88;;;10.00;99.90;;;;;;5074966;28;20092;-81
2022/10/20 05:38:24;;;;;;;22.02;15.35;;;10.10;99.90;;;;;;5074748;28;20025;-82
2022/10/20 05:40:50;;;;;;;23.17;15.85;;;10.00;99.90;;;;;;5068678;28;20044;-81
2022/10/20 05:43:16;;;;;;;20.73;15.23;;;10.00;99.90;;;;;;5069220;28;20476;-82
2022/10/20 05:45:41;;;;;;;23.60;16.17;;;10.10;99.90;;;;;;5049873;28;20045;-82
2022/10/20 05:48:07;;;;;;;24.08;15.90;;;10.00;99.90;;;;;;5049101;28;20453;-82
2022/10/20 05:50:32;;;;;;;23.52;15.93;;;10.10;99.90;;;;;;5042486;28;20037;-80
2022/10/20 05:52:59;;;;;;;21.27;16.08;;;10.10;99.90;;;;;;5045785;28;20021;-81
2022/10/20 05:55:25;;;;;;;23.60;16.17;;;10.10;99.90;;;;;;5045190;28;20112;-81
2022/10/20 05:57:51;;;;;;;19.85;15.95;;;10.10;99.90;;;;;;5051153;28;20114;-82
2022/10/20 06:00:28;;;;;;;26.60;16.05;;;10.10;99.90;;;;;;5049479;28;20100;-82
2022/10/20 06:02:53;;;;;;;30.02;15.95;;;10.50;99.90;;;;;;5052367;28;20087;-82
2022/10/20 06:05:19;;;;;;;22.77;16.02;;;10.10;99.90;;;;;;5051695;28;20025;-82
2022/10/20 06:07:46;;;;;;;24.52;16.60;;;10.10;99.90;;;;;;5052893;28;20072;-82
2022/10/20 06:10:13;;;;;;;21.77;14.88;;;10.10;99.90;;;;;;5055479;28;20025;-82
2022/10/20 06:12:38;;;;;;;19.52;16.48;;;10.10;99.90;;;;;;5044437;28;20469;-83
2022/10/20 06:15:04;;;;;;;25.05;16.80;;;10.10;99.90;;;;;;5044233;28;20017;-83
2022/10/20 06:17:30;;;;;;;20.92;16.27;;;10.10;99.90;;;;;;5050538;28;20044;-83
2022/10/20 06:19:55;;;;;;;26.52;15.93;;;10.10;99.90;;;;;;5050908;28;20048;-83
2022/10/20 06:22:21;;;;;;;23.63;17.30;;;10.10;99.90;;;;;;5052922;28;20036;-83
2022/10/20 06:24:46;;;;;;;24.45;16.63;;;10.10;99.90;;;;;;5052586;28;20028;-82
2022/10/20 06:27:12;;;;;;;22.58;16.85;;;10.10;99.90;;;;;;5053837;28;20044;-82
2022/10/20 06:29:37;;;;;;;29.42;17.52;;;10.20;99.90;;;;;;5052175;28;20021;-83
2022/10/20 06:32:03;;;;;;;21.05;16.65;;;10.20;99.90;;;;;;5046590;28;20020;-83
2022/10/20 06:34:29;;;;;;;21.80;16.25;;;10.20;99.90;;;;;;5042366;28;20100;-83
2022/10/20 06:36:54;;;;;;;28.58;17.17;;;10.30;99.90;;;;;;5053206;28;20033;-83
2022/10/20 06:39:22;;;;;;;28.23;17.23;;;10.20;99.90;;;;;;5058364;28;20009;-83
2022/10/20 06:41:50;;;;;;;24.60;16.05;;;10.30;99.90;;;;;;5043862;28;20036;-81
2022/10/20 06:44:17;;;;;;;19.80;16.00;;;10.30;99.90;;;;;;5046732;28;20021;-80
2022/10/20 06:46:43;;;;;;;25.38;17.00;;;10.40;99.90;;;;;;5043939;28;20036;-80
2022/10/20 06:49:10;;;;;;;26.02;16.30;;;10.40;99.90;;;;;;5048684;28;20057;-81
2022/10/20 06:51:36;;;;;;;19.73;16.10;;;10.40;99.90;;;;;;5053273;28;20381;-81
2022/10/20 06:54:02;;;;;;;22.08;17.00;;;10.40;99.90;;;;;;5053003;28;20148;-80
2022/10/20 06:56:30;;;;;;;23.73;16.15;;;10.40;99.90;;;;;;5049400;28;20025;-81
2022/10/20 06:58:58;;;;;;;23.83;16.08;;;10.40;99.90;;;;;;5052186;28;20040;-80
2022/10/20 07:01:28;;;;;;;20.85;15.80;;;10.50;99.90;;;;;;5053650;28;20032;-80
2022/10/20 07:03:55;;;;;;;;;;;10.40;99.90;;;;;;5043115;28;20156;-81
2022/10/20 07:06:24;;;;;;;23.73;16.83;;;10.50;99.90;;;;;;5039617;28;19905;-81
2022/10/20 07:08:52;;;;;;;27.13;16.13;;;10.50;99.90;;;;;;5052072;28;20021;-81
2022/10/20 07:11:19;;;;;;;22.27;16.00;;;11.10;99.90;;;;;;5053165;28;20022;-77
2022/10/20 07:13:45;;;;;;;26.30;16.70;;;10.60;99.90;;;;;;5058591;28;20039;-84
2022/10/20 07:16:13;;;;;;;23.20;16.63;;;10.60;99.90;;;;;;5055765;28;20026;-85
2022/10/20 07:18:39;;;;;;;22.52;17.40;;;10.70;99.90;;;;;;5060277;28;20053;-83
2022/10/20 07:21:11;;;;;;;23.10;16.92;;;10.70;99.90;;;;;;5058498;28;20033;-84
2022/10/20 07:23:37;;;;;;;24.63;17.60;;;10.80;99.90;;;;;;5049829;28;20029;-83
2022/10/20 07:26:04;;;;;;;32.72;17.73;;;10.70;99.90;;;;;;5056196;28;20032;-83
2022/10/20 07:28:30;;;;;;;25.98;16.45;;;10.80;99.90;;;;;;5056868;28;20021;-83
2022/10/20 07:30:57;;;;;;;22.10;16.70;;;10.90;99.90;;;;;;5058380;28;20451;-82
2022/10/20 07:33:24;;;;;;;25.23;17.27;;;10.80;99.90;;;;;;5057178;28;20055;-83
2022/10/20 07:35:50;;;;;;;21.45;16.33;;;10.90;99.90;;;;;;5055317;28;20037;-82
2022/10/20 07:38:16;;;;;;;22.02;15.90;;;10.90;99.90;;;;;;5056944;28;20029;-83
2022/10/20 07:40:44;;;;;;;22.52;15.95;;;11.00;99.90;;;;;;5053257;28;20048;-80
2022/10/20 07:43:10;;;;;;;23.48;16.30;;;11.00;99.90;;;;;;5055053;28;20017;-80
2022/10/20 07:45:35;;;;;;;22.98;15.52;;;11.00;99.90;;;;;;5055521;28;20553;-82
2022/10/20 07:48:03;;;;;;;26.63;17.98;;;11.10;99.90;;;;;;5054758;28;20017;-78
2022/10/20 07:50:29;;;;;;;24.90;16.73;;;11.10;99.90;;;;;;5054969;28;20108;-79
2022/10/20 07:52:54;;;;;;;29.40;18.08;;;11.20;99.90;;;;;;5054554;28;20084;-80
2022/10/20 07:55:20;;;;;;;25.30;17.50;;;11.20;99.90;;;;;;5055082;28;20024;-81
2022/10/20 07:57:46;;;;;;;20.63;16.90;;;11.20;99.90;;;;;;5050755;28;20043;-81
2022/10/20 08:00:12;;;;;;;22.27;16.20;;;11.20;99.90;;;;;;5051280;28;20504;-79
2022/10/20 08:02:39;;;;;;;26.83;16.83;;;11.20;99.90;;;;;;5055964;28;20036;-83
2022/10/20 08:05:06;;;;;;;22.92;17.23;;;11.20;99.90;;;;;;5047756;28;20025;-84
2022/10/20 08:07:32;;;;;;;23.73;15.68;;;11.30;99.90;;;;;;5053285;28;20094;-83
2022/10/20 08:10:00;;;;;;;26.08;16.92;;;11.30;99.90;;;;;;5050586;28;20036;-83
2022/10/20 08:12:26;;;;;;;22.23;15.95;;;11.40;99.90;;;;;;5051156;28;20021;-84
2022/10/20 08:14:51;;;;;;;23.63;16.67;;;11.40;99.90;;;;;;5055996;28;20035;-85
2022/10/20 08:17:17;;;;;;;20.23;16.50;;;11.40;99.90;;;;;;5055995;28;20033;-85
2022/10/20 08:19:43;;;;;;;26.50;18.42;;;11.40;99.90;;;;;;5054942;28;20068;-84
2022/10/20 08:22:09;;;;;;;22.58;15.73;;;11.50;99.90;;;;;;5057494;28;20060;-85
2022/10/20 08:24:35;;;;;;;26.40;17.45;;;11.50;99.90;;;;;;5056601;28;20033;-84
2022/10/20 08:27:01;;;;;;;25.02;16.63;;;11.50;99.90;;;;;;5057015;28;20119;-85
2022/10/20 08:29:26;;;;;;;23.25;15.93;;;11.60;99.90;;;;;;5044024;28;20060;-84
2022/10/20 08:31:52;;;;;;;29.63;16.40;;;11.60;99.90;;;;;;5056603;28;20025;-84
2022/10/20 08:34:18;;;;;;;23.92;16.33;;;11.60;99.90;;;;;;5059141;28;20025;-84
2022/10/20 08:36:43;;;;;;;19.38;15.23;;;11.70;99.90;;;;;;5053222;28;20041;-85
2022/10/20 08:39:09;;;;;;;22.65;17.17;;;11.70;99.90;;;;;;5050201;28;20059;-84
2022/10/20 08:41:42;;;;;;;24.45;16.75;;;11.80;99.90;;;;;;5053371;28;20033;-84
2022/10/20 08:44:13;;;;;;;21.20;16.85;;;11.80;99.90;;;;;;5058503;28;20127;-84
2022/10/20 08:46:39;;;;;;;22.55;16.27;;;11.80;99.90;;;;;;5052873;28;20560;-82
2022/10/20 08:49:15;;;;;;;23.42;16.95;;;11.90;99.90;;;;;;5058101;28;20032;-81
2022/10/20 08:51:41;;;;;;;26.85;17.02;;;12.00;99.90;;;;;;5056429;28;20111;-82
2022/10/20 08:54:13;;;;;;;24.08;15.68;;;12.00;99.90;;;;;;5057159;28;20064;-80
2022/10/20 08:56:38;;;;;;;22.67;17.67;;;12.10;99.90;;;;;;5055464;28;20088;-81
2022/10/20 08:59:22;;;;;;;22.63;17.08;;;12.10;99.90;;;;;;5054378;28;20075;-74
2022/10/20 09:01:47;;;;;;;20.15;15.93;;;12.20;99.90;;;;;;5060855;28;20105;-82
2022/10/20 09:04:32;;;;;;;21.88;16.75;;;12.20;99.90;;;;;;5068013;28;20025;-83
2022/10/20 09:07:09;;;;;;;19.70;16.13;;;12.30;99.90;;;;;;5064029;28;20291;-83
2022/10/20 09:09:35;;;;;;;23.73;16.77;;;12.30;99.90;;;;;;5039554;28;20064;-81
2022/10/20 09:12:06;;;;;;;22.67;15.73;;;12.40;99.90;;;;;;5053316;28;20040;-84
2022/10/20 09:14:35;;;;;;;24.30;15.63;;;12.50;99.90;;;;;;5066644;28;20055;-82
2022/10/20 09:17:01;;;;;;;26.38;16.65;;;12.60;99.90;;;;;;5071451;28;20031;-83
2022/10/20 09:19:27;;;;;;;20.58;16.88;;;12.60;99.90;;;;;;5070706;28;20572;-84
2022/10/20 09:22:04;;;;;;;24.88;16.80;;;12.60;99.90;;;;;;5074340;28;20037;-82
2022/10/20 09:24:30;;;;;;;23.58;16.38;;;12.70;99.90;;;;;;5066500;28;20168;-83
2022/10/20 09:26:56;;;;;;;23.50;16.65;;;12.80;99.90;;;;;;5054926;28;20047;-83
2022/10/20 09:29:34;;;;;;;21.00;15.88;;;12.80;99.90;;;;;;5053316;28;20045;-82
2022/10/20 09:32:00;;;;;;;20.00;16.33;;;12.90;99.90;;;;;;5053985;28;20053;-81
2022/10/20 09:34:31;;;;;;;20.08;17.25;;;13.00;99.90;;;;;;5050772;28;20055;-80
2022/10/20 09:37:06;;;;;;;20.80;16.48;;;13.00;99.90;;;;;;5048809;28;20017;-83
2022/10/20 09:39:55;;;;;;;23.45;15.77;;;13.20;99.90;;;;;;5052649;28;20017;-83
2022/10/20 09:42:35;;;;;;;25.92;17.10;;;13.30;99.90;;;;;;5052391;28;20035;-82
2022/10/20 09:45:27;;;;;;;19.52;16.63;;;13.50;99.90;;;;;;5053692;28;20469;-81
2022/10/20 09:48:15;;;;;;;27.02;17.30;;;13.50;99.90;;;;;;5050594;28;20031;-80
2022/10/20 09:50:47;;;;;;;23.40;16.13;;;13.70;99.90;;;;;;5049335;28;20028;-82
2022/10/20 09:53:19;;;;;;;24.15;15.57;;;13.80;99.90;;;;;;5040653;28;20072;-83
2022/10/20 09:55:47;;;;;;;25.33;16.90;;;13.80;99.90;;;;;;5051089;28;20086;-81
2022/10/20 09:58:25;;;;;;;20.75;14.95;;;13.90;99.90;;;;;;5049565;28;20059;-82
2022/10/20 10:01:05;;;;;;;21.67;15.68;;;13.90;99.90;;;;;;5050447;28;20567;-85
2022/10/20 10:03:45;;;;;;;20.10;16.05;;;13.80;99.90;;;;;;5041258;28;20025;-80
2022/10/20 10:06:28;;;;;;;27.65;16.55;;;13.90;99.90;;;;;;5037893;28;20100;-82
2022/10/20 10:08:56;;;;;;;22.60;15.18;;;13.90;99.90;;;;;;5040264;28;20044;-83
2022/10/20 10:11:27;;;;;;;21.05;16.17;;;13.90;99.90;;;;;;5041840;28;20482;-87
2022/10/20 10:13:53;;;;;;;29.48;15.95;;;13.90;99.90;;;;;;5039922;28;20037;-84
2022/10/20 10:16:22;;;;;;;17.70;15.57;;;13.80;99.90;;;;;;5046175;28;20346;-86
2022/10/20 10:19:04;;;;;;;19.87;16.07;;;13.80;99.90;;;;;;5055343;28;20041;-88
2022/10/20 10:21:52;;;;;;;23.00;16.25;;;13.80;99.90;;;;;;5052568;28;20394;-86
2022/10/20 10:24:29;;;;;;;19.13;16.70;;;13.80;99.90;;;;;;5052252;28;20021;-77
2022/10/20 10:26:56;;;;;;;18.02;15.25;;;13.80;99.90;;;;;;5054387;28;20040;-81
2022/10/20 10:29:28;;;;;;;17.48;15.48;;;13.80;99.90;;;;;;5053007;28;20029;-80
2022/10/20 10:32:23;;;;;;;21.08;17.05;;;13.80;99.90;;;;;;5050864;28;20033;-79
2022/10/20 10:35:14;;;;;;;19.80;16.10;;;13.80;99.90;;;;;;5034520;28;20029;-78
2022/10/20 10:37:43;;;;;;;26.63;16.77;;;13.80;99.90;;;;;;5047637;28;20107;-79
2022/10/20 10:40:40;;;;;;;19.05;16.75;;;13.90;99.90;;;;;;5040530;28;20028;-79
2022/10/20 10:43:59;;;;;;;33.15;17.15;;;13.90;99.90;;;;;;5033948;28;20045;-79
2022/10/20 10:46:29;;;;;;;21.33;16.35;;;14.00;99.90;;;;;;4991798;28;20042;-78
2022/10/20 10:49:29;;;;;;;22.30;18.10;;;13.90;99.90;;;;;;5027713;28;20134;-81
2022/10/20 10:52:04;;;;;;;22.35;16.67;;;14.00;99.90;;;;;;5046990;28;20041;-83
2022/10/20 10:54:42;;;;;;;20.67;16.08;;;14.00;99.90;;;;;;5042224;28;20112;-82
2022/10/20 10:57:44;;;;;;;20.33;16.60;;;14.00;99.90;;;;;;5052192;28;20031;-83
2022/10/20 11:00:34;;;;;;;19.10;15.98;;;14.00;99.90;;;;;;5051829;28;20036;-82
2022/10/20 11:03:19;;;;;;;18.93;15.57;;;13.90;99.90;;;;;;5039979;28;20076;-84
2022/10/20 11:06:03;;;;;;;30.75;17.25;;;14.00;99.90;;;;;;5041233;28;20033;-83
2022/10/20 11:08:31;;;;;;;23.88;17.88;;;14.00;99.90;;;;;;5047791;28;20025;-83
2022/10/20 11:11:27;;;;;;;26.45;17.77;;;13.90;99.90;;;;;;5049516;28;20025;-82
2022/10/20 11:14:22;;;;;;;21.00;16.33;;;14.00;99.90;;;;;;5050662;28;20043;-82
2022/10/20 11:16:59;;;;;;;19.77;16.88;;;14.00;99.90;;;;;;5050085;28;20052;-81
2022/10/20 11:19:54;;;;;;;22.48;16.48;;;14.00;99.90;;;;;;5053528;28;20049;-81
2022/10/20 11:22:55;;;;;;;26.98;17.60;;;14.10;99.90;;;;;;5055364;28;20033;-81
2022/10/20 11:25:37;;;;;;;25.50;17.02;;;14.00;99.90;;;;;;5056036;28;20065;-82
2022/10/20 11:28:05;;;;;;;24.17;17.15;;;14.10;99.90;;;;;;5054796;28;20461;-82
2022/10/20 11:30:33;;;;;;;26.20;16.92;;;14.20;99.90;;;;;;5048932;28;20550;-78
2022/10/20 11:33:13;;;;;;;30.92;17.80;;;14.20;99.90;;;;;;5052115;28;20094;-78
2022/10/20 11:35:47;;;;;;;21.38;16.75;;;14.30;99.90;;;;;;5055116;28;20021;-76
2022/10/20 11:38:39;;;;;;;23.02;17.58;;;14.30;99.90;;;;;;5054084;28;20039;-79
2022/10/20 11:41:16;;;;;;;19.60;16.33;;;14.40;99.90;;;;;;5051808;28;20037;-77
2022/10/20 11:44:00;;;;;;;23.67;18.55;;;14.50;99.90;;;;;;5054025;28;20052;-76
2022/10/20 11:46:51;;;;;;;27.80;17.85;;;14.50;99.90;;;;;;5052985;28;20077;-76
2022/10/20 11:49:17;;;;;;;24.73;16.80;;;14.60;99.90;;;;;;5051186;28;20021;-76
2022/10/20 11:51:52;;;;;;;23.98;16.55;;;14.70;99.90;;;;;;5052612;28;20520;-76
2022/10/20 11:54:40;;;;;;;22.63;17.90;;;14.70;99.90;;;;;;5051688;28;20021;-75
2022/10/20 11:57:31;;;;;;;19.75;15.55;;;14.80;99.90;;;;;;5053903;28;20028;-78
2022/10/20 12:00:19;;;;;;;19.50;16.65;;;14.90;99.90;;;;;;5053431;28;20112;-74
2022/10/20 12:03:17;;;;;;;17.55;15.68;;;14.90;99.90;;;;;;5053434;28;20045;-80
2022/10/20 12:05:42;;;;;;;19.35;15.85;;;14.90;99.90;;;;;;5017948;28;20071;-76
2022/10/20 12:08:36;;;;;;;23.95;16.17;;;14.80;99.90;;;;;;5054309;28;20059;-79
2022/10/20 12:11:26;;;;;;;23.45;16.48;;;14.70;99.90;;;;;;5054410;28;20021;-76
2022/10/20 12:14:01;;;;;;;;;;;14.70;99.90;;;;;;5053132;28;20108;-76
2022/10/20 12:16:57;;;;;;;20.10;16.80;;;14.60;99.90;;;;;;5054649;28;19905;-76
2022/10/20 12:19:33;;;;;;;22.13;16.60;;;14.60;99.90;;;;;;5054212;28;20087;-79
2022/10/20 12:22:24;;;;;;;22.27;17.55;;;14.70;99.90;;;;;;5053571;28;20040;-79
2022/10/20 12:24:53;;;;;;;20.90;16.98;;;14.80;99.90;;;;;;5054085;28;20159;-79
2022/10/20 12:27:26;;;;;;;22.00;17.67;;;14.80;99.90;;;;;;5054327;28;20493;-79
2022/10/20 12:29:54;;;;;;;24.42;17.70;;;14.80;99.90;;;;;;5053505;28;20380;-78
2022/10/20 12:32:51;;;;;;;23.38;18.45;;;14.90;99.90;;;;;;5042877;28;20392;-77
2022/10/20 12:35:22;;;;;;;28.90;20.05;;;15.00;99.90;;;;;;5045650;28;20014;-80
2022/10/20 12:38:02;;;;;;;22.17;19.63;;;15.10;99.90;;;;;;5040589;28;20461;-79
2022/10/20 12:40:58;;;;;;;24.05;19.65;;;15.10;99.90;;;;;;5052038;28;20436;-79
2022/10/20 12:43:29;;;;;;;24.80;18.15;;;15.10;99.90;;;;;;5049397;28;20045;-79
2022/10/20 12:45:57;;;;;;;25.17;19.38;;;15.10;99.90;;;;;;5049771;28;20018;-80
2022/10/20 12:48:24;;;;;;;24.23;19.42;;;15.10;99.90;;;;;;5037242;28;20040;-79
2022/10/20 12:50:51;;;;;;;21.48;17.42;;;15.10;99.90;;;;;;5038492;28;20519;-80
2022/10/20 12:53:16;;;;;;;21.00;18.67;;;15.10;99.90;;;;;;5037815;28;20052;-79